Houston Heights, Texas
Current Conditions -  °F | °C
As of 7:35 PM on Thursday 27 Nov 2014 (Local Time) from KMCJ Reporting Station
Clear Clear  
Wind Chill: 57°   Ceiling: Unl
Heat Index: 57°   Visibility: 10mi
Dew Point: 34°   Wind: 0mph
Humidity: 41%   Direction: NA
Pressure: 30.39"   Gusts: NA
Location:  29.7982°N, 95.4183°W
Report Text: KMCJ 280135Z AUTO 00000KT 10SM CLR 14/01 A3039 RMK AO1
Loading
Personal Weather Stations






























Interactive Weather Map New forecast layout! Learn more

10-Day Weather Forecast

Advertisements
Track Severe Weather on mobile